Time;durP1;ratioP1;P1;durP2;ratioP2;P2;SDS_P1;SDS_P2;PMS_P1;PMS_P2;Temp;Humidity;BMP_temperature;BMP_pressure;BME280_temperature;BME280_humidity;BME280_pressure;Samples;Min_cycle;Max_cycle;Signal;HPM_P1;HPM_P2
2023/04/11 00:01:19;;;;;;;0.70;0.70;;;16.60;99.90;;;;;;4995304;28;20230;-63
2023/04/11 00:03:48;;;;;;;0.77;0.77;;;16.60;99.90;;;;;;4997606;28;20632;-63
2023/04/11 00:06:20;;;;;;;0.70;0.70;;;16.60;99.90;;;;;;4996784;28;20245;-64
2023/04/11 00:08:47;;;;;;;0.82;0.82;;;16.60;99.90;;;;;;4998404;28;20237;-63
2023/04/11 00:11:14;;;;;;;0.85;0.85;;;16.60;99.90;;;;;;4994305;28;20300;-65
2023/04/11 00:13:56;;;;;;;0.60;0.60;;;16.50;99.90;;;;;;4995337;28;20294;-65
2023/04/11 00:16:27;;;;;;;0.60;0.60;;;16.50;99.90;;;;;;4995176;28;20206;-64
2023/04/11 00:18:58;;;;;;;0.68;0.68;;;16.40;99.90;;;;;;4995458;28;20230;-63
2023/04/11 00:21:38;;;;;;;0.63;0.63;;;16.40;99.90;;;;;;4993931;28;20206;-63
2023/04/11 00:24:15;;;;;;;0.70;0.70;;;16.40;99.90;;;;;;4993120;28;20221;-65
2023/04/11 00:26:50;;;;;;;1.00;0.85;;;16.40;99.90;;;;;;4994459;28;20206;-63
2023/04/11 00:29:27;;;;;;;0.80;0.77;;;16.40;99.90;;;;;;4994754;28;20205;-63
2023/04/11 00:31:55;;;;;;;0.93;0.63;;;16.40;99.90;;;;;;4995298;28;20252;-62
2023/04/11 00:34:22;;;;;;;0.52;0.52;;;16.40;99.90;;;;;;4996055;28;20277;-63
2023/04/11 00:36:57;;;;;;;1.27;0.60;;;16.40;99.90;;;;;;4994610;28;20570;-62
2023/04/11 00:39:25;;;;;;;0.80;0.80;;;16.30;99.90;;;;;;4993872;28;21203;-64
2023/04/11 00:41:52;;;;;;;0.75;0.75;;;16.20;99.90;;;;;;4994439;28;20210;-64
2023/04/11 00:44:25;;;;;;;0.80;0.80;;;16.20;99.90;;;;;;4994550;28;20611;-63
2023/04/11 00:47:00;;;;;;;0.93;0.80;;;16.00;99.90;;;;;;4993957;28;20206;-63
2023/04/11 00:49:30;;;;;;;0.60;0.60;;;16.00;99.90;;;;;;4993375;28;20815;-61
2023/04/11 00:51:59;;;;;;;0.68;0.68;;;15.90;99.90;;;;;;4994433;28;20206;-62
2023/04/11 00:54:29;;;;;;;0.50;0.50;;;15.80;99.90;;;;;;4997652;28;20628;-63
2023/04/11 00:56:59;;;;;;;0.70;0.70;;;15.60;99.90;;;;;;5014108;28;20190;-62
2023/04/11 00:59:29;;;;;;;0.63;0.63;;;15.40;99.90;;;;;;5000160;28;20214;-63
2023/04/11 01:02:02;;;;;;;1.00;0.70;;;15.20;99.90;;;;;;4995727;28;20681;-63
2023/04/11 01:04:29;;;;;;;1.10;0.80;;;15.10;99.90;;;;;;4995197;28;20213;-63
2023/04/11 01:07:04;;;;;;;0.60;0.60;;;14.90;99.90;;;;;;4989752;28;20740;-64
2023/04/11 01:09:39;;;;;;;0.80;0.80;;;14.80;99.90;;;;;;4994107;28;20291;-63
2023/04/11 01:12:10;;;;;;;0.85;0.85;;;14.50;99.90;;;;;;4994563;28;20257;-62
2023/04/11 01:14:40;;;;;;;0.70;0.70;;;14.40;99.90;;;;;;4994796;28;20310;-63
2023/04/11 01:17:11;;;;;;;0.75;0.75;;;14.30;99.90;;;;;;4994108;28;20201;-62
2023/04/11 01:19:40;;;;;;;0.63;0.63;;;14.30;99.90;;;;;;4993423;28;20217;-61
2023/04/11 01:22:10;;;;;;;0.60;0.60;;;14.40;99.90;;;;;;4994135;28;20217;-63
2023/04/11 01:24:40;;;;;;;0.60;0.60;;;14.40;99.90;;;;;;4994246;28;20702;-63
2023/04/11 01:27:09;;;;;;;0.65;0.65;;;14.40;99.90;;;;;;4994109;28;20202;-64
2023/04/11 01:29:40;;;;;;;0.75;0.75;;;14.20;99.90;;;;;;4998253;28;20301;-63
2023/04/11 01:32:07;;;;;;;0.75;0.75;;;14.10;99.90;;;;;;5002214;28;20186;-63
2023/04/11 01:34:36;;;;;;;0.80;0.80;;;14.10;99.90;;;;;;5002369;28;20282;-65
2023/04/11 01:37:03;;;;;;;0.80;0.80;;;13.90;99.90;;;;;;4997651;28;20289;-63
2023/04/11 01:39:30;;;;;;;0.63;0.63;;;13.80;99.90;;;;;;4995882;28;20210;-63
2023/04/11 01:42:00;;;;;;;0.80;0.80;;;13.80;99.90;;;;;;4995701;28;20205;-63
2023/04/11 01:44:28;;;;;;;0.65;0.65;;;13.80;99.90;;;;;;4994766;28;20206;-63
2023/04/11 01:46:55;;;;;;;0.65;0.65;;;13.80;99.90;;;;;;4993637;28;20652;-63
2023/04/11 01:49:24;;;;;;;0.70;0.70;;;13.70;99.90;;;;;;4994088;28;20305;-64
2023/04/11 01:51:51;;;;;;;0.77;0.77;;;13.70;99.90;;;;;;4994294;28;20226;-64
2023/04/11 01:54:18;;;;;;;0.60;0.60;;;13.70;99.90;;;;;;4993214;28;20210;-64
2023/04/11 01:56:45;;;;;;;0.57;0.57;;;13.70;99.90;;;;;;4993483;28;20210;-64
2023/04/11 01:59:13;;;;;;;0.65;0.65;;;13.80;99.90;;;;;;4992535;28;20236;-64
2023/04/11 02:01:43;;;;;;;0.60;0.60;;;13.80;99.90;;;;;;4992671;28;20217;-63
2023/04/11 02:04:10;;;;;;;1.00;1.00;;;13.70;99.90;;;;;;4993253;28;20213;-64
2023/04/11 02:06:37;;;;;;;0.77;0.77;;;13.50;99.90;;;;;;4993275;28;20237;-64
2023/04/11 02:09:04;;;;;;;0.77;0.77;;;13.00;99.90;;;;;;4992577;28;20232;-63
2023/04/11 02:11:31;;;;;;;0.80;0.80;;;12.90;99.90;;;;;;4992486;28;20455;-64
2023/04/11 02:13:58;;;;;;;1.10;1.10;;;12.60;99.90;;;;;;4992641;28;20206;-64
2023/04/11 02:16:28;;;;;;;0.70;0.70;;;12.40;99.90;;;;;;4995177;28;20213;-63
2023/04/11 02:18:56;;;;;;;0.80;0.80;;;12.10;99.90;;;;;;4995546;28;20312;-63
2023/04/11 02:21:23;;;;;;;0.70;0.70;;;12.00;99.90;;;;;;4993123;28;20205;-64
2023/04/11 02:23:50;;;;;;;0.90;0.90;;;12.00;99.90;;;;;;4994641;28;20683;-64
2023/04/11 02:26:17;;;;;;;0.80;0.80;;;12.00;99.90;;;;;;4992591;28;20217;-65
2023/04/11 02:28:44;;;;;;;0.77;0.77;;;12.00;99.90;;;;;;4992502;28;20253;-64
2023/04/11 02:31:10;;;;;;;0.80;0.60;;;12.00;99.90;;;;;;4991895;28;20248;-63
2023/04/11 02:33:39;;;;;;;0.73;0.73;;;12.10;99.90;;;;;;4995494;28;20209;-65
2023/04/11 02:36:06;;;;;;;0.75;0.75;;;12.20;99.90;;;;;;5012807;28;20274;-65
2023/04/11 02:38:33;;;;;;;0.65;0.65;;;12.10;99.90;;;;;;4999382;28;20225;-63
2023/04/11 02:41:00;;;;;;;0.75;0.75;;;12.20;99.90;;;;;;4992886;28;20202;-63
2023/04/11 02:43:26;;;;;;;0.80;0.80;;;12.40;99.90;;;;;;4993244;28;20206;-63
2023/04/11 02:45:53;;;;;;;0.70;0.70;;;12.40;99.90;;;;;;4992798;28;20598;-63
2023/04/11 02:48:20;;;;;;;0.60;0.60;;;12.30;99.90;;;;;;4992748;28;20225;-64
2023/04/11 02:50:48;;;;;;;0.90;0.90;;;12.40;99.90;;;;;;4991959;28;20225;-65
2023/04/11 02:53:15;;;;;;;0.77;0.77;;;12.50;99.90;;;;;;4992586;28;20685;-64
2023/04/11 02:55:42;;;;;;;0.80;0.80;;;12.50;99.90;;;;;;4992504;28;20681;-65
2023/04/11 02:58:09;;;;;;;0.60;0.60;;;12.50;99.90;;;;;;4992653;28;20230;-62
2023/04/11 03:00:37;;;;;;;0.60;0.60;;;12.50;99.90;;;;;;4996750;28;20210;-63
2023/04/11 03:03:05;;;;;;;0.75;0.75;;;12.60;99.90;;;;;;5002540;28;20229;-63
2023/04/11 03:05:32;;;;;;;0.70;0.70;;;12.60;99.90;;;;;;5001474;28;20209;-63
2023/04/11 03:08:00;;;;;;;1.10;1.03;;;12.60;99.90;;;;;;4995928;28;20222;-63
2023/04/11 03:10:27;;;;;;;0.70;0.70;;;12.60;99.90;;;;;;4992049;28;20496;-65
2023/04/11 03:12:53;;;;;;;0.80;0.80;;;12.40;99.90;;;;;;4992550;28;20212;-64
2023/04/11 03:15:20;;;;;;;0.80;0.80;;;12.40;99.90;;;;;;4993119;28;20202;-64
2023/04/11 03:17:47;;;;;;;0.50;0.50;;;12.50;99.90;;;;;;4992375;28;20225;-63
2023/04/11 03:20:18;;;;;;;0.60;0.60;;;12.50;99.90;;;;;;4991542;28;20307;-64
2023/04/11 03:22:45;;;;;;;0.88;0.88;;;12.40;99.90;;;;;;4991767;28;20712;-63
2023/04/11 03:25:13;;;;;;;0.63;0.60;;;12.20;99.90;;;;;;4992065;28;20393;-63
2023/04/11 03:27:40;;;;;;;0.70;0.70;;;12.00;99.90;;;;;;4991998;28;20610;-63
2023/04/11 03:30:08;;;;;;;0.68;0.68;;;12.10;99.90;;;;;;4991887;28;20661;-63
2023/04/11 03:32:35;;;;;;;0.60;0.60;;;12.10;99.90;;;;;;4991912;28;20241;-64
2023/04/11 03:35:02;;;;;;;0.60;0.60;;;12.10;99.90;;;;;;4991872;28;20692;-62
2023/04/11 03:37:29;;;;;;;0.70;0.70;;;12.10;99.90;;;;;;4991947;28;20240;-62
2023/04/11 03:39:56;;;;;;;0.68;0.68;;;12.00;99.90;;;;;;4993739;28;20222;-62
2023/04/11 03:42:24;;;;;;;0.70;0.70;;;11.90;99.90;;;;;;4995839;28;20202;-64
2023/04/11 03:44:51;;;;;;;0.90;0.90;;;11.90;99.90;;;;;;4995865;28;20700;-64
2023/04/11 03:47:17;;;;;;;0.63;0.63;;;11.80;99.90;;;;;;5000326;28;20729;-64
2023/04/11 03:49:44;;;;;;;0.60;0.60;;;11.60;99.90;;;;;;5003205;28;20210;-64
2023/04/11 03:52:13;;;;;;;0.60;0.60;;;11.40;99.90;;;;;;5003314;28;20288;-64
2023/04/11 03:54:40;;;;;;;0.50;0.50;;;11.30;99.90;;;;;;4997574;28;20225;-64
2023/04/11 03:57:07;;;;;;;0.50;0.50;;;11.30;99.90;;;;;;4995830;28;20649;-64
2023/04/11 03:59:35;;;;;;;0.57;0.57;;;11.20;99.90;;;;;;4994540;28;20665;-64
2023/04/11 04:02:02;;;;;;;0.38;0.38;;;11.20;99.90;;;;;;4995057;28;20210;-64
2023/04/11 04:04:31;;;;;;;0.50;0.50;;;11.20;99.90;;;;;;4994940;28;20202;-62
2023/04/11 04:06:57;;;;;;;0.40;0.40;;;11.20;99.90;;;;;;4995406;28;20206;-64
2023/04/11 04:09:24;;;;;;;0.57;0.57;;;11.20;99.90;;;;;;4994383;28;20311;-64
2023/04/11 04:11:51;;;;;;;0.30;0.30;;;11.20;99.90;;;;;;4995141;28;20233;-64
2023/04/11 04:14:18;;;;;;;0.60;0.60;;;11.20;99.90;;;;;;5006973;28;20273;-64
2023/04/11 04:16:46;;;;;;;0.40;0.40;;;11.20;99.90;;;;;;5013072;28;20216;-65
2023/04/11 04:19:13;;;;;;;0.50;0.50;;;11.20;99.90;;;;;;4996530;28;20229;-63
2023/04/11 04:21:42;;;;;;;0.53;0.53;;;11.20;99.90;;;;;;4996139;28;20209;-64
2023/04/11 04:24:11;;;;;;;0.30;0.30;;;11.10;99.90;;;;;;4995585;28;20210;-63
2023/04/11 04:26:38;;;;;;;0.47;0.40;;;11.00;99.90;;;;;;4995965;28;20210;-63
2023/04/11 04:29:05;;;;;;;0.40;0.40;;;11.00;99.90;;;;;;4994730;28;20237;-64
2023/04/11 04:31:33;;;;;;;0.52;0.40;;;11.10;99.90;;;;;;4995234;28;20231;-65
2023/04/11 04:34:07;;;;;;;0.70;0.52;;;11.10;99.90;;;;;;4995678;28;20209;-64
2023/04/11 04:36:44;;;;;;;0.60;0.60;;;11.10;99.90;;;;;;5002302;28;20206;-64
2023/04/11 04:39:16;;;;;;;0.52;0.52;;;11.20;99.90;;;;;;5000537;28;20240;-64
2023/04/11 04:41:43;;;;;;;0.30;0.30;;;11.30;99.90;;;;;;4990820;28;20198;-63
2023/04/11 04:44:10;;;;;;;0.70;0.70;;;11.40;99.90;;;;;;4992547;28;20650;-64
2023/04/11 04:46:37;;;;;;;0.30;0.20;;;11.50;99.90;;;;;;4989232;28;20214;-62
2023/04/11 04:49:06;;;;;;;0.60;0.60;;;11.50;99.90;;;;;;4985975;28;20626;-62
2023/04/11 04:51:33;;;;;;;0.32;0.32;;;11.40;99.90;;;;;;4988037;28;20676;-63
2023/04/11 04:54:00;;;;;;;0.50;0.50;;;11.40;99.90;;;;;;4988989;28;20206;-64
2023/04/11 04:56:29;;;;;;;0.50;0.50;;;11.40;99.90;;;;;;4997842;28;20648;-63
2023/04/11 04:58:56;;;;;;;0.60;0.60;;;11.50;99.90;;;;;;4990976;28;20225;-64
2023/04/11 05:01:25;;;;;;;0.52;0.52;;;11.40;99.90;;;;;;4989391;28;20206;-64
2023/04/11 05:03:58;;;;;;;0.40;0.40;;;11.50;99.90;;;;;;4986278;28;20302;-64
2023/04/11 05:06:27;;;;;;;0.60;0.60;;;11.50;99.90;;;;;;4988927;28;20210;-63
2023/04/11 05:08:55;;;;;;;0.65;0.65;;;11.60;99.90;;;;;;4987574;28;20288;-65
2023/04/11 05:11:22;;;;;;;0.60;0.60;;;11.60;99.90;;;;;;4986184;28;20219;-65
2023/04/11 05:13:48;;;;;;;0.45;0.45;;;11.60;99.90;;;;;;4989346;28;20210;-64
2023/04/11 05:16:16;;;;;;;0.50;0.50;;;11.50;99.90;;;;;;4986423;28;20210;-63
2023/04/11 05:18:43;;;;;;;0.50;0.50;;;11.50;99.90;;;;;;4989793;28;20636;-64
2023/04/11 05:21:10;;;;;;;0.55;0.55;;;11.60;99.90;;;;;;4992858;28;20194;-64
2023/04/11 05:23:38;;;;;;;0.60;0.60;;;11.50;99.90;;;;;;4993911;28;20213;-64
2023/04/11 05:26:07;;;;;;;0.70;0.70;;;11.50;99.90;;;;;;4994149;28;20276;-64
2023/04/11 05:28:34;;;;;;;0.50;0.50;;;11.50;99.90;;;;;;4987481;28;20298;-64
2023/04/11 05:31:01;;;;;;;0.50;0.50;;;11.50;99.90;;;;;;4976650;28;20222;-63
2023/04/11 05:33:28;;;;;;;1.65;0.77;;;11.50;99.90;;;;;;4993449;28;20221;-63
2023/04/11 05:35:55;;;;;;;0.80;0.80;;;11.40;99.90;;;;;;4986180;28;20206;-62
2023/04/11 05:38:22;;;;;;;0.60;0.60;;;11.40;99.90;;;;;;4990762;28;20320;-63
2023/04/11 05:40:50;;;;;;;0.70;0.70;;;11.50;99.90;;;;;;4991431;28;20205;-64
2023/04/11 05:43:17;;;;;;;0.70;0.70;;;11.50;99.90;;;;;;4994837;28;20240;-63
2023/04/11 05:45:46;;;;;;;0.30;0.30;;;11.50;99.90;;;;;;5002574;28;20229;-65
2023/04/11 05:48:13;;;;;;;0.50;0.50;;;11.60;99.90;;;;;;5011011;28;20273;-63
2023/04/11 05:50:40;;;;;;;0.70;0.70;;;11.50;99.90;;;;;;5006442;28;20202;-64
2023/04/11 05:53:07;;;;;;;0.40;0.40;;;11.50;99.90;;;;;;5011539;28;20226;-66
2023/04/11 05:55:34;;;;;;;0.50;0.50;;;11.50;99.90;;;;;;5012262;28;20261;-63
2023/04/11 05:58:02;;;;;;;0.70;0.70;;;11.50;99.90;;;;;;4996648;28;20230;-64
2023/04/11 06:00:31;;;;;;;0.60;0.60;;;11.50;99.90;;;;;;4991371;28;20274;-64
2023/04/11 06:02:58;;;;;;;0.40;0.40;;;11.40;99.90;;;;;;4986637;28;20209;-63
2023/04/11 06:05:30;;;;;;;0.55;0.55;;;11.30;99.90;;;;;;4975698;28;20217;-65
2023/04/11 06:07:57;;;;;;;0.77;0.77;;;11.30;99.90;;;;;;4974993;28;20513;-64
2023/04/11 06:10:24;;;;;;;0.70;0.70;;;11.30;99.90;;;;;;4974014;28;20258;-65
2023/04/11 06:12:51;;;;;;;0.60;0.60;;;11.30;99.90;;;;;;4974112;28;20261;-65
2023/04/11 06:15:19;;;;;;;0.70;0.70;;;11.30;99.90;;;;;;4974733;28;20234;-63
2023/04/11 06:17:46;;;;;;;0.73;0.73;;;11.30;99.90;;;;;;4974324;28;20240;-63
2023/04/11 06:20:14;;;;;;;0.60;0.60;;;11.30;99.90;;;;;;4973237;28;20688;-64
2023/04/11 06:22:41;;;;;;;0.57;0.57;;;11.30;99.90;;;;;;4974224;28;20678;-63
2023/04/11 06:25:08;;;;;;;0.70;0.70;;;11.30;99.90;;;;;;4974318;28;20217;-65
2023/04/11 06:27:35;;;;;;;0.65;0.65;;;11.30;99.90;;;;;;4975847;28;20222;-63
2023/04/11 06:30:02;;;;;;;0.60;0.60;;;11.30;99.90;;;;;;4974007;28;20297;-64
2023/04/11 06:32:30;;;;;;;0.88;0.88;;;11.30;99.90;;;;;;4973957;28;20714;-65
2023/04/11 06:34:57;;;;;;;0.85;0.85;;;11.20;99.90;;;;;;4973332;28;20214;-65
2023/04/11 06:37:24;;;;;;;0.95;0.73;;;11.20;99.90;;;;;;4973680;28;20230;-65
2023/04/11 06:39:53;;;;;;;0.63;0.63;;;11.20;99.90;;;;;;4972565;28;20682;-65
2023/04/11 06:42:20;;;;;;;0.60;0.60;;;11.30;99.90;;;;;;4973876;28;20285;-63
2023/04/11 06:44:48;;;;;;;0.80;0.80;;;11.20;99.90;;;;;;4974305;28;20297;-63
2023/04/11 06:47:14;;;;;;;0.90;0.90;;;11.20;99.90;;;;;;4973829;28;20222;-63
2023/04/11 06:49:44;;;;;;;0.90;0.90;;;11.20;99.90;;;;;;4972802;28;20233;-63
2023/04/11 06:52:10;;;;;;;0.80;0.80;;;11.20;99.90;;;;;;4973119;28;20281;-65
2023/04/11 06:54:38;;;;;;;0.70;0.70;;;11.20;99.90;;;;;;4973027;28;20207;-64
2023/04/11 06:57:05;;;;;;;0.80;0.80;;;11.10;99.90;;;;;;4972988;28;20242;-63
2023/04/11 06:59:33;;;;;;;0.80;0.80;;;11.10;99.90;;;;;;4971868;28;20301;-65
2023/04/11 07:02:00;;;;;;;0.75;0.75;;;11.20;99.90;;;;;;4973011;28;20209;-65
2023/04/11 07:04:27;;;;;;;0.80;0.80;;;11.20;99.90;;;;;;4973809;28;20260;-65
2023/04/11 07:06:55;;;;;;;0.90;0.90;;;11.30;99.90;;;;;;4973484;28;20213;-64
2023/04/11 07:09:22;;;;;;;0.80;0.80;;;11.40;99.90;;;;;;4972538;28;20709;-65
2023/04/11 07:11:49;;;;;;;0.90;0.90;;;11.40;99.90;;;;;;4972659;28;20253;-64
2023/04/11 07:14:16;;;;;;;0.95;0.90;;;11.30;99.90;;;;;;4974989;28;20226;-63
2023/04/11 07:16:43;;;;;;;1.13;1.10;;;11.40;99.90;;;;;;4976958;28;20253;-65
2023/04/11 07:19:10;;;;;;;2.88;1.42;;;11.50;99.90;;;;;;4979615;28;20240;-64
2023/04/11 07:21:37;;;;;;;2.00;1.10;;;11.50;99.90;;;;;;4993884;28;20207;-64
2023/04/11 07:24:05;;;;;;;0.90;0.90;;;11.60;99.90;;;;;;4979952;28;20207;-63
2023/04/11 07:26:34;;;;;;;1.00;1.00;;;11.60;99.90;;;;;;4976985;28;21006;-64
2023/04/11 07:29:00;;;;;;;0.90;0.90;;;11.60;99.90;;;;;;4976668;28;20318;-63
2023/04/11 07:31:27;;;;;;;0.60;0.60;;;11.70;99.90;;;;;;4976261;28;20301;-63
2023/04/11 07:33:54;;;;;;;0.80;0.80;;;11.70;99.90;;;;;;4978053;28;20237;-68
2023/04/11 07:36:21;;;;;;;1.15;0.90;;;11.70;99.90;;;;;;4992030;28;20234;-63
2023/04/11 07:38:48;;;;;;;0.77;0.77;;;11.70;99.90;;;;;;4979492;28;20317;-65
2023/04/11 07:41:16;;;;;;;0.80;0.80;;;11.70;99.90;;;;;;4974246;28;20210;-65
2023/04/11 07:43:43;;;;;;;0.90;0.90;;;11.80;99.90;;;;;;4977145;28;20585;-62
2023/04/11 07:46:10;;;;;;;0.70;0.70;;;11.80;99.90;;;;;;4977758;28;20325;-64
2023/04/11 07:48:37;;;;;;;0.70;0.70;;;11.80;99.90;;;;;;4987245;28;20230;-63
2023/04/11 07:51:04;;;;;;;0.90;0.90;;;11.80;99.90;;;;;;4982014;28;20211;-62
2023/04/11 07:53:33;;;;;;;1.05;1.00;;;11.80;99.90;;;;;;4981362;28;20290;-67
2023/04/11 07:56:00;;;;;;;0.90;0.80;;;11.90;99.90;;;;;;4981491;28;20301;-63
2023/04/11 07:58:29;;;;;;;0.75;0.75;;;11.90;99.90;;;;;;4976806;28;20373;-64
2023/04/11 08:00:55;;;;;;;0.77;0.77;;;12.00;99.90;;;;;;4977593;28;20245;-64
2023/04/11 08:03:22;;;;;;;0.73;0.73;;;12.10;99.90;;;;;;4984650;28;20211;-63
2023/04/11 08:05:51;;;;;;;0.77;0.77;;;12.20;99.90;;;;;;4977759;28;20207;-64
2023/04/11 08:08:17;;;;;;;0.80;0.80;;;12.30;99.90;;;;;;4981340;28;20230;-64
2023/04/11 08:10:44;;;;;;;0.80;0.80;;;12.30;99.90;;;;;;4976832;28;20306;-63
2023/04/11 08:13:11;;;;;;;0.73;0.73;;;12.30;99.90;;;;;;4978425;28;20226;-65
2023/04/11 08:15:39;;;;;;;1.25;1.05;;;12.50;99.90;;;;;;4977930;28;20210;-64
2023/04/11 08:18:06;;;;;;;1.17;0.80;;;12.50;99.90;;;;;;4975018;28;20317;-64
2023/04/11 08:20:33;;;;;;;0.93;0.93;;;12.50;99.90;;;;;;4974643;28;20616;-64
2023/04/11 08:23:05;;;;;;;1.08;1.00;;;12.60;99.90;;;;;;4976798;28;20312;-64
2023/04/11 08:25:32;;;;;;;0.88;0.88;;;12.60;99.90;;;;;;4975799;28;20214;-64
2023/04/11 08:27:59;;;;;;;1.20;1.10;;;12.70;99.90;;;;;;4976426;28;20577;-63
2023/04/11 08:30:26;;;;;;;1.05;1.05;;;12.70;99.90;;;;;;4977862;28;20206;-64
2023/04/11 08:32:54;;;;;;;0.85;0.85;;;12.70;99.90;;;;;;4977840;28;20596;-63
2023/04/11 08:35:21;;;;;;;1.25;1.15;;;12.60;99.90;;;;;;4977820;28;20214;-64
2023/04/11 08:37:48;;;;;;;2.10;1.20;;;12.50;99.90;;;;;;4977517;28;20227;-64
2023/04/11 08:40:15;;;;;;;1.10;1.10;;;12.40;99.90;;;;;;4974690;28;20215;-64
2023/04/11 08:42:42;;;;;;;1.15;1.02;;;12.30;99.90;;;;;;4975808;28;20600;-63
2023/04/11 08:45:10;;;;;;;0.77;0.77;;;12.30;99.90;;;;;;4975923;28;20214;-63
2023/04/11 08:47:37;;;;;;;1.05;0.80;;;12.40;99.90;;;;;;4975425;28;20231;-63
2023/04/11 08:50:07;;;;;;;0.82;0.82;;;12.60;99.90;;;;;;4974083;28;20206;-64
2023/04/11 08:52:37;;;;;;;1.20;1.10;;;13.00;99.90;;;;;;4974926;28;20226;-63
2023/04/11 08:55:04;;;;;;;0.90;0.90;;;13.00;99.90;;;;;;4975060;28;20230;-65
2023/04/11 08:57:31;;;;;;;0.90;0.90;;;13.10;99.90;;;;;;4974955;28;20223;-63
2023/04/11 09:00:06;;;;;;;0.80;0.80;;;13.20;99.90;;;;;;4973642;28;20626;-63
2023/04/11 09:02:32;;;;;;;1.00;1.00;;;13.40;99.90;;;;;;4974014;28;20297;-64
2023/04/11 09:04:59;;;;;;;1.10;1.00;;;13.40;99.90;;;;;;4974457;28;20210;-63
2023/04/11 09:07:27;;;;;;;1.10;1.00;;;13.20;99.90;;;;;;4974238;28;20230;-63
2023/04/11 09:09:54;;;;;;;1.05;1.05;;;13.00;99.90;;;;;;4973284;28;20871;-65
2023/04/11 09:12:29;;;;;;;1.00;1.00;;;12.90;99.90;;;;;;4973441;28;20222;-64
2023/04/11 09:14:55;;;;;;;1.05;1.00;;;13.00;99.90;;;;;;4973456;28;20292;-63
2023/04/11 09:17:22;;;;;;;1.10;1.00;;;13.10;99.90;;;;;;4971599;28;20229;-63
2023/04/11 09:19:49;;;;;;;0.70;0.70;;;13.20;99.90;;;;;;4973650;28;20202;-64
2023/04/11 09:22:16;;;;;;;1.00;1.00;;;13.40;99.90;;;;;;4974498;28;20207;-65
2023/04/11 09:24:45;;;;;;;0.80;0.80;;;13.50;99.90;;;;;;4973954;28;20206;-64
2023/04/11 09:27:14;;;;;;;0.95;0.95;;;13.50;99.90;;;;;;4973919;28;20220;-63
2023/04/11 09:29:44;;;;;;;0.90;0.90;;;13.50;99.90;;;;;;4973645;28;20219;-65
2023/04/11 09:32:28;;;;;;;1.00;1.00;;;13.50;99.90;;;;;;4974151;28;20685;-64
2023/04/11 09:35:09;;;;;;;1.08;1.02;;;13.50;99.90;;;;;;4974666;28;20207;-64
2023/04/11 09:37:44;;;;;;;1.10;1.00;;;13.60;99.90;;;;;;4973148;28;20250;-63
2023/04/11 09:40:13;;;;;;;1.13;1.02;;;13.70;99.90;;;;;;4973914;28;20214;-64
2023/04/11 09:42:41;;;;;;;1.10;1.00;;;13.60;99.90;;;;;;4974564;28;20242;-63
2023/04/11 09:45:17;;;;;;;0.80;0.80;;;13.70;99.90;;;;;;4974085;28;20830;-63
2023/04/11 09:47:44;;;;;;;1.17;1.13;;;13.70;99.90;;;;;;4974876;28;20226;-65
2023/04/11 09:50:11;;;;;;;1.95;1.20;;;13.70;99.90;;;;;;4975951;28;20306;-64
2023/04/11 09:52:41;;;;;;;1.00;1.00;;;13.80;99.90;;;;;;4976999;28;20226;-64
2023/04/11 09:55:10;;;;;;;1.15;1.05;;;13.80;99.90;;;;;;4975859;28;20661;-64
2023/04/11 09:57:44;;;;;;;0.90;0.90;;;14.00;99.90;;;;;;4975406;28;20230;-63
2023/04/11 10:00:15;;;;;;;0.80;0.80;;;14.30;99.90;;;;;;4973947;28;20639;-65
2023/04/11 10:02:43;;;;;;;1.00;1.00;;;14.50;99.90;;;;;;4983049;28;20203;-66
2023/04/11 10:05:11;;;;;;;1.08;1.08;;;14.40;99.90;;;;;;4981570;28;20301;-65
2023/04/11 10:07:46;;;;;;;1.17;1.08;;;14.50;99.90;;;;;;4974235;28;20235;-65
2023/04/11 10:10:20;;;;;;;0.85;0.85;;;14.70;99.90;;;;;;4973533;28;20218;-65
2023/04/11 10:12:48;;;;;;;0.82;0.82;;;14.70;99.90;;;;;;4974064;28;20262;-64
2023/04/11 10:15:16;;;;;;;1.23;1.15;;;14.70;99.90;;;;;;4975534;28;20297;-64
2023/04/11 10:18:05;;;;;;;1.02;0.98;;;14.60;99.90;;;;;;4980994;28;20238;-64
2023/04/11 10:20:43;;;;;;;1.00;1.00;;;14.70;99.90;;;;;;4977201;28;20206;-64
2023/04/11 10:23:11;;;;;;;1.00;1.00;;;14.90;99.90;;;;;;4977860;28;20210;-64
2023/04/11 10:25:52;;;;;;;0.98;0.98;;;15.00;99.90;;;;;;4978540;28;20233;-64
2023/04/11 10:28:37;;;;;;;1.10;1.10;;;14.90;99.90;;;;;;4975090;28;20333;-64
2023/04/11 10:31:08;;;;;;;0.80;0.80;;;14.70;99.90;;;;;;4973069;28;20218;-64
2023/04/11 10:33:37;;;;;;;0.80;0.80;;;14.80;99.90;;;;;;4974061;28;20701;-64
2023/04/11 10:36:08;;;;;;;1.10;1.10;;;14.70;99.90;;;;;;4973969;28;20214;-63
2023/04/11 10:38:48;;;;;;;0.90;0.90;;;14.70;99.90;;;;;;4974058;28;20234;-65
2023/04/11 10:41:26;;;;;;;1.02;0.93;;;14.80;99.90;;;;;;4973734;28;20210;-64
2023/04/11 10:44:13;;;;;;;1.35;1.00;;;14.80;99.90;;;;;;4973062;28;20673;-65
2023/04/11 10:46:45;;;;;;;1.00;0.90;;;14.80;99.90;;;;;;4973423;28;20217;-64
2023/04/11 10:49:12;;;;;;;1.00;1.00;;;14.80;99.90;;;;;;4971999;28;20233;-64
2023/04/11 10:51:39;;;;;;;0.90;0.90;;;14.70;99.90;;;;;;4973564;28;20210;-63
2023/04/11 10:54:23;;;;;;;0.80;0.80;;;14.70;99.90;;;;;;4974235;28;20234;-64
2023/04/11 10:56:57;;;;;;;1.05;0.98;;;14.70;99.90;;;;;;4973116;28;20215;-64
2023/04/11 11:00:10;;;;;;;1.17;1.10;;;14.50;99.90;;;;;;4972279;28;20331;-63
2023/04/11 11:02:38;;;;;;;0.98;0.98;;;14.60;99.90;;;;;;4973268;28;20289;-64
2023/04/11 11:05:19;;;;;;;2.15;1.00;;;14.70;99.90;;;;;;4972452;28;20238;-65
2023/04/11 11:07:47;;;;;;;1.00;1.00;;;14.60;99.90;;;;;;4971916;28;20310;-64
2023/04/11 11:10:14;;;;;;;0.82;0.82;;;14.60;99.90;;;;;;4971429;28;20218;-65
2023/04/11 11:12:53;;;;;;;1.10;1.10;;;14.50;99.90;;;;;;4972580;28;20216;-63
2023/04/11 11:15:21;;;;;;;1.00;1.00;;;14.60;99.90;;;;;;4972100;28;20207;-63
2023/04/11 11:17:48;;;;;;;1.15;1.10;;;14.60;99.90;;;;;;4972323;28;20341;-64
2023/04/11 11:20:18;;;;;;;0.80;0.80;;;14.60;99.90;;;;;;4970941;28;20234;-63
2023/04/11 11:23:01;;;;;;;0.93;0.93;;;14.70;99.90;;;;;;4973152;28;20207;-62
2023/04/11 11:25:28;;;;;;;1.02;1.00;;;14.80;99.90;;;;;;4974043;28;20223;-65
2023/04/11 11:28:02;;;;;;;1.00;1.00;;;15.00;99.90;;;;;;4972464;28;20241;-64
2023/04/11 11:30:30;;;;;;;1.20;1.10;;;15.20;99.90;;;;;;4971718;28;20245;-63
2023/04/11 11:32:57;;;;;;;1.30;1.20;;;15.20;99.90;;;;;;4971394;28;20720;-63
2023/04/11 11:35:25;;;;;;;0.85;0.85;;;15.20;99.90;;;;;;4972655;28;20593;-63
2023/04/11 11:37:52;;;;;;;0.80;0.80;;;15.10;99.90;;;;;;4973310;28;20227;-64
2023/04/11 11:40:21;;;;;;;0.87;0.87;;;14.90;99.90;;;;;;4972258;28;20764;-64
2023/04/11 11:42:49;;;;;;;0.90;0.90;;;14.90;99.90;;;;;;4972512;28;20222;-64
2023/04/11 11:45:17;;;;;;;1.05;0.90;;;14.80;99.90;;;;;;4974136;28;20681;-65
2023/04/11 11:47:47;;;;;;;0.82;0.82;;;14.90;99.90;;;;;;4985472;28;20231;-63
2023/04/11 11:50:25;;;;;;;0.95;0.95;;;15.00;99.90;;;;;;4982417;28;20203;-64
2023/04/11 11:52:52;;;;;;;0.85;0.85;;;15.10;99.90;;;;;;4973223;28;20265;-64
2023/04/11 11:55:35;;;;;;;0.90;0.90;;;15.20;99.90;;;;;;4972415;28;20635;-64
2023/04/11 11:58:02;;;;;;;0.95;0.95;;;15.00;99.90;;;;;;4972666;28;20230;-64
2023/04/11 12:00:31;;;;;;;0.90;0.90;;;15.00;99.90;;;;;;4976588;28;20670;-65
2023/04/11 12:03:02;;;;;;;1.00;0.90;;;14.90;99.90;;;;;;4984324;28;20211;-63
2023/04/11 12:05:31;;;;;;;1.02;1.00;;;14.90;99.90;;;;;;4978129;28;20219;-63
2023/04/11 12:08:00;;;;;;;0.90;0.90;;;15.10;99.90;;;;;;4982076;28;20234;-65
2023/04/11 12:10:36;;;;;;;0.90;0.90;;;15.20;99.90;;;;;;4975685;28;20253;-65
2023/04/11 12:13:10;;;;;;;0.77;0.77;;;15.50;99.90;;;;;;4976775;28;20222;-65
2023/04/11 12:15:37;;;;;;;1.02;1.00;;;15.70;99.90;;;;;;4977020;28;20213;-65
2023/04/11 12:18:06;;;;;;;1.10;1.00;;;16.00;99.90;;;;;;4976420;28;20234;-64
2023/04/11 12:20:33;;;;;;;1.15;1.05;;;16.10;99.90;;;;;;4974925;28;20673;-65
2023/04/11 12:23:00;;;;;;;1.23;1.10;;;16.30;99.90;;;;;;4975737;28;20219;-64
2023/04/11 12:25:28;;;;;;;1.05;1.05;;;16.50;99.90;;;;;;4975443;28;20245;-64
2023/04/11 12:27:55;;;;;;;1.35;1.25;;;16.70;99.90;;;;;;4975427;28;20731;-63
2023/04/11 12:30:21;;;;;;;0.93;0.90;;;16.90;99.90;;;;;;4976405;28;20211;-65
2023/04/11 12:32:48;;;;;;;1.00;0.98;;;17.00;99.90;;;;;;4978843;28;20302;-64
2023/04/11 12:35:16;;;;;;;1.00;1.00;;;16.90;99.90;;;;;;4977269;28;20294;-64
2023/04/11 12:37:44;;;;;;;0.93;0.93;;;16.90;99.90;;;;;;4978328;28;20326;-64
2023/04/11 12:40:12;;;;;;;0.95;0.95;;;16.60;99.90;;;;;;4975055;28;20215;-63
2023/04/11 12:42:39;;;;;;;1.23;1.20;;;16.50;99.90;;;;;;4974930;28;20202;-63
2023/04/11 12:45:07;;;;;;;1.70;1.60;;;16.50;99.90;;;;;;4975136;28;20210;-63
2023/04/11 12:47:34;;;;;;;1.02;1.02;;;16.50;99.90;;;;;;4974876;28;20322;-64
2023/04/11 12:50:01;;;;;;;0.75;0.75;;;16.40;99.90;;;;;;4974706;28;20211;-64
2023/04/11 12:52:30;;;;;;;0.95;0.95;;;16.40;99.90;;;;;;4975077;28;20276;-64
2023/04/11 12:54:57;;;;;;;1.23;1.10;;;16.30;99.90;;;;;;4980584;28;20289;-63
2023/04/11 12:57:24;;;;;;;1.10;1.00;;;16.30;99.90;;;;;;4979110;28;20226;-63